createdAt,value
2018-08-31T00:01:58.998Z,101086.05
2018-08-31T00:04:39.738Z,101084.59
2018-08-31T00:07:28.788Z,101088.41
2018-08-31T00:10:09.579Z,101083.57
2018-08-31T00:12:38.496Z,101087.04
2018-08-31T00:15:06.979Z,101081.40
2018-08-31T00:17:35.379Z,101078.52
2018-08-31T00:20:03.490Z,101077.87
2018-08-31T00:22:31.671Z,101075.33
2018-08-31T00:25:11.040Z,101071.67
2018-08-31T00:27:50.499Z,101074.91
2018-08-31T00:30:30.062Z,101071.89
2018-08-31T00:33:10.887Z,101068.92
2018-08-31T00:38:08.772Z,101073.98
2018-08-31T00:41:52.903Z,101063.42
2018-08-31T00:44:30.012Z,101066.20
2018-08-31T00:46:58.075Z,101068.28
2018-08-31T00:49:26.128Z,101073.12
2018-08-31T00:51:54.267Z,101067.59
2018-08-31T00:54:22.369Z,101070.13
2018-08-31T00:56:50.445Z,101073.23
2018-08-31T00:59:18.506Z,101072.89
2018-08-31T01:01:46.563Z,101074.95
2018-08-31T01:04:14.636Z,101070.35
2018-08-31T01:06:42.708Z,101071.94
2018-08-31T01:09:10.766Z,101066.20
2018-08-31T01:11:39.097Z,101068.17
2018-08-31T01:14:07.127Z,101066.44
2018-08-31T01:16:35.239Z,101073.00
2018-08-31T01:19:03.312Z,101073.69
2018-08-31T01:21:31.396Z,101076.13
2018-08-31T01:23:59.499Z,101078.21
2018-08-31T01:26:27.720Z,101067.03
2018-08-31T01:28:55.763Z,101070.61
2018-08-31T01:31:23.822Z,101074.28
2018-08-31T01:33:51.883Z,101073.95
2018-08-31T01:36:19.959Z,101076.27
2018-08-31T01:38:48.035Z,101076.03
2018-08-31T01:41:16.118Z,101071.06
2018-08-31T01:43:44.204Z,101077.41
2018-08-31T01:46:12.255Z,101071.76
2018-08-31T01:48:40.319Z,101065.33
2018-08-31T01:51:13.822Z,101073.63
2018-08-31T01:53:41.919Z,101074.52
2018-08-31T01:56:09.989Z,101078.45
2018-08-31T01:58:38.039Z,101074.75
2018-08-31T02:01:06.168Z,101074.30
2018-08-31T02:03:34.255Z,101078.77
2018-08-31T02:06:02.319Z,101072.43
2018-08-31T02:08:30.451Z,101075.67
2018-08-31T02:10:58.513Z,101081.90
2018-08-31T02:13:26.584Z,101081.66
2018-08-31T02:15:54.637Z,101076.58
2018-08-31T02:18:22.743Z,101079.12
2018-08-31T02:20:51.307Z,101081.54
2018-08-31T02:23:19.484Z,101079.14
2018-08-31T02:25:47.595Z,101085.13
2018-08-31T02:28:15.737Z,101081.22
2018-08-31T02:30:43.797Z,101081.67
2018-08-31T02:33:11.890Z,101077.08
2018-08-31T02:35:39.957Z,101080.29
2018-08-31T02:38:08.013Z,101079.48
2018-08-31T02:40:36.085Z,101080.53
2018-08-31T02:43:04.175Z,101080.30
2018-08-31T02:45:32.464Z,101078.22
2018-08-31T02:48:00.534Z,101081.67
2018-08-31T02:50:28.581Z,101077.28
2018-08-31T02:53:03.007Z,101074.41
2018-08-31T02:58:05.700Z,101071.30
2018-08-31T03:00:33.794Z,101073.14
2018-08-31T03:03:02.574Z,101074.19
2018-08-31T03:05:31.253Z,101071.06
2018-08-31T03:07:59.353Z,101072.00
2018-08-31T03:10:27.402Z,101065.54
2018-08-31T03:12:55.474Z,101066.59
2018-08-31T03:15:23.531Z,101067.16
2018-08-31T03:17:51.621Z,101074.31
2018-08-31T03:20:19.699Z,101067.97
2018-08-31T03:22:47.748Z,101074.31
2018-08-31T03:25:15.833Z,101070.86
2018-08-31T03:27:43.957Z,101074.52
2018-08-31T03:30:12.009Z,101071.98
2018-08-31T03:32:40.092Z,101063.56
2018-08-31T03:35:08.316Z,101066.93
2018-08-31T03:37:36.392Z,101073.47
2018-08-31T03:40:04.532Z,101068.98
2018-08-31T03:42:32.601Z,101069.67
2018-08-31T03:45:00.673Z,101071.04
2018-08-31T03:47:28.743Z,101065.50
2018-08-31T03:49:56.816Z,101073.20
2018-08-31T03:52:24.880Z,101072.27
2018-08-31T03:54:52.972Z,101072.59
2018-08-31T03:57:21.058Z,101072.59
2018-08-31T03:59:49.147Z,101067.20
2018-08-31T04:02:17.397Z,101070.09
2018-08-31T04:04:45.479Z,101080.43
2018-08-31T04:07:13.548Z,101070.75
2018-08-31T04:09:41.805Z,101073.75
2018-08-31T04:12:09.837Z,101066.97
2018-08-31T04:14:37.915Z,101071.30
2018-08-31T04:17:06.019Z,101068.45
2018-08-31T04:19:34.084Z,101069.16
2018-08-31T04:22:02.165Z,101073.75
2018-08-31T04:24:30.259Z,101071.91
2018-08-31T04:26:58.316Z,101071.67
2018-08-31T04:29:26.412Z,101078.01
2018-08-31T04:31:54.460Z,101074.56
2018-08-31T04:34:22.587Z,101069.50
2018-08-31T04:36:50.692Z,101073.07
2018-08-31T04:39:18.780Z,101074.20
2018-08-31T04:41:46.858Z,101069.25
2018-08-31T04:44:15.076Z,101080.55
2018-08-31T04:46:43.187Z,101076.29
2018-08-31T04:49:11.270Z,101079.30
2018-08-31T04:51:40.126Z,101073.41
2018-08-31T04:54:08.189Z,101077.36
2018-08-31T04:56:36.280Z,101083.92
2018-08-31T04:59:08.755Z,101084.17
2018-08-31T05:01:36.830Z,101088.08
2018-08-31T05:04:04.932Z,101091.30
2018-08-31T05:06:32.999Z,101082.31
2018-08-31T05:09:01.129Z,101093.17
2018-08-31T05:11:29.909Z,101095.48
2018-08-31T05:13:57.991Z,101092.38
2018-08-31T05:16:26.080Z,101090.30
2018-08-31T05:18:54.138Z,101087.41
2018-08-31T05:21:22.440Z,101090.17
2018-08-31T05:23:50.548Z,101094.11
2018-08-31T05:26:18.766Z,101095.27
2018-08-31T05:28:46.903Z,101097.07
2018-08-31T05:31:14.992Z,101098.33
2018-08-31T05:33:43.063Z,101097.52
2018-08-31T05:36:11.128Z,101102.84
2018-08-31T05:38:46.756Z,101099.46
2018-08-31T05:41:14.806Z,101102.33
2018-08-31T05:43:42.850Z,101105.89
2018-08-31T05:46:17.912Z,101105.16
2018-08-31T05:48:49.463Z,101106.25
2018-08-31T05:51:20.291Z,101112.31
2018-08-31T05:53:48.397Z,101111.68
2018-08-31T05:56:16.475Z,101112.64
2018-08-31T05:58:45.480Z,101111.69
2018-08-31T06:01:13.606Z,101103.97
2018-08-31T06:03:41.643Z,101110.64
2018-08-31T06:06:09.699Z,101111.17
2018-08-31T06:08:37.781Z,101105.33
2018-08-31T06:11:06.793Z,101105.52
2018-08-31T06:13:34.846Z,101118.03
2018-08-31T06:16:02.888Z,101113.66
2018-08-31T06:18:30.920Z,101113.05
2018-08-31T06:20:59.109Z,101120.07
2018-08-31T06:23:27.124Z,101132.27
2018-08-31T06:25:55.276Z,101121.61
2018-08-31T06:31:10.791Z,101127.22
2018-08-31T06:33:39.547Z,101124.16
2018-08-31T06:36:08.589Z,101124.44
2018-08-31T06:38:37.351Z,101125.81
2018-08-31T06:41:06.186Z,101124.67
2018-08-31T06:43:34.920Z,101121.13
2018-08-31T06:46:03.763Z,101117.81
2018-08-31T06:48:32.499Z,101121.73
2018-08-31T06:51:00.571Z,101122.86
2018-08-31T06:53:28.629Z,101123.98
2018-08-31T06:55:56.711Z,101127.16
2018-08-31T06:58:24.801Z,101128.09
2018-08-31T07:00:52.851Z,101125.92
2018-08-31T07:03:20.875Z,101124.84
2018-08-31T07:05:49.226Z,101123.30
2018-08-31T07:08:17.264Z,101128.47
2018-08-31T07:10:45.303Z,101128.11
2018-08-31T07:13:13.432Z,101140.89
2018-08-31T07:15:41.618Z,101136.28
2018-08-31T07:18:09.732Z,101136.89
2018-08-31T07:20:37.913Z,101136.72
2018-08-31T07:23:05.977Z,101134.39
2018-08-31T07:25:34.027Z,101136.92
2018-08-31T07:28:02.112Z,101139.59
2018-08-31T07:30:30.195Z,101147.34
2018-08-31T07:32:58.409Z,101152.05
2018-08-31T07:35:26.539Z,101151.63
2018-08-31T07:37:54.594Z,101155.69
2018-08-31T07:40:22.623Z,101160.16
2018-08-31T07:42:50.647Z,101160.19
2018-08-31T07:45:18.858Z,101162.93
2018-08-31T07:47:47.014Z,101163.88
2018-08-31T07:50:15.054Z,101167.30
2018-08-31T07:52:43.084Z,101159.50
2018-08-31T07:55:11.111Z,101157.99
2018-08-31T07:57:39.868Z,101155.13
2018-08-31T08:00:07.946Z,101158.74
2018-08-31T08:02:35.979Z,101165.46
2018-08-31T08:05:04.135Z,101157.98
2018-08-31T08:07:32.183Z,101158.51
2018-08-31T08:10:00.243Z,101166.36
2018-08-31T08:12:28.349Z,101164.91
2018-08-31T08:14:56.384Z,101168.83
2018-08-31T08:17:24.423Z,101171.45
2018-08-31T08:19:52.463Z,101181.86
2018-08-31T08:22:20.495Z,101177.93
2018-08-31T08:24:48.979Z,101170.59
2018-08-31T08:27:17.055Z,101172.41
2018-08-31T08:29:45.526Z,101171.45
2018-08-31T08:32:13.649Z,101180.27
2018-08-31T08:34:41.809Z,101175.84
2018-08-31T08:37:09.859Z,101178.46
2018-08-31T08:39:37.985Z,101172.30
2018-08-31T08:42:06.199Z,101174.12
2018-08-31T08:44:34.187Z,101174.53
2018-08-31T08:47:02.308Z,101179.55
2018-08-31T08:49:30.746Z,101180.36
2018-08-31T08:52:02.751Z,101173.94
2018-08-31T08:54:31.930Z,101175.72
2018-08-31T08:57:00.659Z,101182.77
2018-08-31T08:59:28.789Z,101178.12
2018-08-31T09:01:57.923Z,101174.09
2018-08-31T09:04:27.428Z,101174.39
2018-08-31T09:06:55.667Z,101173.80
2018-08-31T09:09:23.846Z,101175.52
2018-08-31T09:11:51.993Z,101173.41
2018-08-31T09:14:20.074Z,101176.81
2018-08-31T09:16:48.341Z,101174.59
2018-08-31T09:19:16.463Z,101179.60
2018-08-31T09:21:44.535Z,101173.41
2018-08-31T09:24:12.646Z,101174.50
2018-08-31T09:26:40.715Z,101169.59
2018-08-31T09:29:08.795Z,101172.92
2018-08-31T09:31:37.295Z,101165.83
2018-08-31T09:34:05.385Z,101170.91
2018-08-31T09:36:33.508Z,101168.97
2018-08-31T09:39:02.011Z,101161.84
2018-08-31T09:41:30.150Z,101164.25
2018-08-31T09:43:58.505Z,101161.27
2018-08-31T09:46:26.534Z,101157.07
2018-08-31T09:48:54.607Z,101153.05
2018-08-31T09:51:22.751Z,101151.82
2018-08-31T09:53:50.800Z,101151.02
2018-08-31T09:56:18.856Z,101152.41
2018-08-31T09:58:46.910Z,101150.97
2018-08-31T10:01:20.396Z,101145.57
2018-08-31T10:03:48.492Z,101141.41
2018-08-31T10:06:16.552Z,101143.02
2018-08-31T10:08:44.747Z,101145.02
2018-08-31T10:11:12.826Z,101139.66
2018-08-31T10:13:40.903Z,101136.65
2018-08-31T10:16:09.052Z,101145.05
2018-08-31T10:18:37.167Z,101139.84
2018-08-31T10:21:05.731Z,101142.80
2018-08-31T10:23:33.854Z,101141.41
2018-08-31T10:26:01.953Z,101148.44
2018-08-31T10:28:30.105Z,101145.65
2018-08-31T10:30:58.245Z,101145.05
2018-08-31T10:33:26.314Z,101144.04
2018-08-31T10:35:54.425Z,101142.85
2018-08-31T10:38:22.530Z,101144.66
2018-08-31T10:40:50.552Z,101144.23
2018-08-31T10:43:18.599Z,101142.45
2018-08-31T10:45:46.711Z,101141.66
2018-08-31T10:48:14.876Z,101141.84
2018-08-31T10:50:42.943Z,101139.45
2018-08-31T10:53:11.025Z,101139.87
2018-08-31T10:55:39.084Z,101138.64
2018-08-31T10:58:07.604Z,101139.04
2018-08-31T11:00:35.662Z,101139.44
2018-08-31T11:03:03.725Z,101137.86
2018-08-31T11:05:31.828Z,101129.85
2018-08-31T11:07:59.857Z,101132.23
2018-08-31T11:10:27.899Z,101125.78
2018-08-31T11:12:56.024Z,101138.24
2018-08-31T11:15:24.105Z,101129.00
2018-08-31T11:17:52.127Z,101132.63
2018-08-31T11:20:20.190Z,101141.05
2018-08-31T11:22:48.279Z,101134.64
2018-08-31T11:25:16.418Z,101140.05
2018-08-31T11:27:44.501Z,101134.25
2018-08-31T11:30:12.523Z,101134.44
2018-08-31T11:32:40.594Z,101102.42
2018-08-31T11:35:08.668Z,101129.02
2018-08-31T11:37:36.767Z,101134.02
2018-08-31T11:40:04.847Z,101131.98
2018-08-31T11:42:32.882Z,101131.75
2018-08-31T11:45:00.954Z,101129.33
2018-08-31T11:47:29.076Z,101136.07
2018-08-31T11:49:57.178Z,101128.54
2018-08-31T11:52:25.215Z,101125.34
2018-08-31T11:54:53.271Z,101124.75
2018-08-31T11:57:21.323Z,101123.74
2018-08-31T11:59:49.380Z,101127.25
2018-08-31T12:02:17.487Z,101127.63
2018-08-31T12:04:45.600Z,101135.03
2018-08-31T12:07:13.646Z,101132.23
2018-08-31T12:09:41.797Z,101133.84
2018-08-31T12:12:09.831Z,101130.23
2018-08-31T12:14:37.900Z,101124.63
2018-08-31T12:17:06.089Z,101128.84
2018-08-31T12:19:34.270Z,101132.83
2018-08-31T12:22:02.438Z,101123.83
2018-08-31T12:24:30.552Z,101120.63
2018-08-31T12:26:58.739Z,101118.23
2018-08-31T12:29:27.185Z,101119.02
2018-08-31T12:31:55.398Z,101119.20
2018-08-31T12:34:23.527Z,101120.48
2018-08-31T12:36:51.588Z,101115.14
2018-08-31T12:39:19.683Z,101108.14
2018-08-31T12:41:47.788Z,101118.82
2018-08-31T12:44:15.990Z,101118.44
2018-08-31T12:46:44.012Z,101115.84
2018-08-31T12:49:12.058Z,101115.65
2018-08-31T12:51:40.145Z,101110.86
2018-08-31T12:54:08.168Z,101119.84
2018-08-31T12:56:42.783Z,101110.64
2018-08-31T12:59:10.940Z,101113.85
2018-08-31T13:01:39.316Z,101109.43
2018-08-31T13:04:07.480Z,101107.02
2018-08-31T13:06:35.524Z,101100.03
2018-08-31T13:09:04.590Z,101097.42
2018-08-31T13:11:32.649Z,101101.83
2018-08-31T13:14:00.688Z,101094.78
2018-08-31T13:16:28.744Z,101098.22
2018-08-31T13:18:56.779Z,101098.45
2018-08-31T13:21:24.873Z,101088.80
2018-08-31T13:23:52.948Z,101089.02
2018-08-31T13:26:21.563Z,101087.99
2018-08-31T13:28:49.617Z,101092.20
2018-08-31T13:31:17.739Z,101090.63
2018-08-31T13:33:45.747Z,101088.80
2018-08-31T13:36:13.791Z,101085.77
2018-08-31T13:38:41.831Z,101089.82
2018-08-31T13:41:09.887Z,101096.02
2018-08-31T13:43:37.920Z,101093.77
2018-08-31T13:46:05.959Z,101095.17
2018-08-31T13:48:33.996Z,101090.41
2018-08-31T13:51:02.119Z,101087.17
2018-08-31T13:53:30.293Z,101087.56
2018-08-31T13:55:58.357Z,101092.36
2018-08-31T13:58:26.519Z,101095.23
2018-08-31T14:00:54.549Z,101086.84
2018-08-31T14:03:22.814Z,101085.64
2018-08-31T14:05:50.868Z,101088.83
2018-08-31T14:08:18.989Z,101088.41
2018-08-31T14:10:47.044Z,101089.04
2018-08-31T14:13:15.101Z,101081.45
2018-08-31T14:15:43.283Z,101083.44
2018-08-31T14:18:11.323Z,101084.39
2018-08-31T14:20:39.376Z,101082.61
2018-08-31T14:23:07.505Z,101082.84
2018-08-31T14:25:36.056Z,101084.23
2018-08-31T14:28:04.127Z,101077.44
2018-08-31T14:30:32.211Z,101077.83
2018-08-31T14:33:00.264Z,101071.41
2018-08-31T14:35:28.371Z,101074.20
2018-08-31T14:37:56.434Z,101075.44
2018-08-31T14:40:24.518Z,101075.84
2018-08-31T14:42:53.879Z,101079.21
2018-08-31T14:45:21.927Z,101066.60
2018-08-31T14:47:49.998Z,101078.40
2018-08-31T14:50:18.075Z,101080.22
2018-08-31T14:52:46.135Z,101069.99
2018-08-31T14:55:14.174Z,101073.00
2018-08-31T14:57:42.324Z,101074.57
2018-08-31T15:00:10.379Z,101073.55
2018-08-31T15:02:38.573Z,101071.34
2018-08-31T15:05:06.646Z,101079.59
2018-08-31T15:07:34.732Z,101073.40
2018-08-31T15:10:02.771Z,101068.20
2018-08-31T15:12:30.837Z,101073.00
2018-08-31T15:14:58.898Z,101074.59
2018-08-31T15:17:27.013Z,101068.59
2018-08-31T15:19:55.078Z,101072.80
2018-08-31T15:22:23.121Z,101070.20
2018-08-31T15:24:51.187Z,101076.23
2018-08-31T15:27:19.216Z,101056.80
2018-08-31T15:29:47.246Z,101072.20
2018-08-31T15:32:15.277Z,101076.78
2018-08-31T15:34:43.348Z,101081.41
2018-08-31T15:37:11.956Z,101080.39
2018-08-31T15:39:40.655Z,101072.95
2018-08-31T15:42:08.771Z,101071.98
2018-08-31T15:44:36.846Z,101076.39
2018-08-31T15:47:05.423Z,101066.00
2018-08-31T15:49:33.481Z,101074.62
2018-08-31T15:52:01.615Z,101071.40
2018-08-31T15:54:29.687Z,101070.80
2018-08-31T15:56:57.745Z,101076.62
2018-08-31T15:59:25.776Z,101082.64
2018-08-31T16:01:53.831Z,101079.44
2018-08-31T16:04:21.876Z,101085.45
2018-08-31T16:06:49.915Z,101097.06
2018-08-31T16:09:18.023Z,101090.06
2018-08-31T16:11:46.109Z,101093.45
2018-08-31T16:14:14.190Z,101091.04
2018-08-31T16:16:42.226Z,101084.22
2018-08-31T16:19:10.277Z,101092.80
2018-08-31T16:21:38.436Z,101090.43
2018-08-31T16:24:06.495Z,101090.61
2018-08-31T16:26:34.509Z,101091.97
2018-08-31T16:29:02.600Z,101094.67
2018-08-31T16:31:30.640Z,101098.26
2018-08-31T16:33:58.667Z,101089.45
2018-08-31T16:36:26.708Z,101097.63
2018-08-31T16:38:54.840Z,101095.81
2018-08-31T16:41:22.789Z,101090.23
2018-08-31T16:43:50.839Z,101095.88
2018-08-31T16:46:18.867Z,101098.05
2018-08-31T16:48:46.939Z,101103.03
2018-08-31T16:51:15.029Z,101103.23
2018-08-31T16:53:43.042Z,101100.08
2018-08-31T16:56:11.075Z,101103.47
2018-08-31T16:58:39.182Z,101098.55
2018-08-31T17:01:07.292Z,101107.82
2018-08-31T17:03:35.390Z,101109.17
2018-08-31T17:06:03.468Z,101107.52
2018-08-31T17:08:31.547Z,101106.44
2018-08-31T17:10:59.695Z,101115.22
2018-08-31T17:13:27.756Z,101098.38
2018-08-31T17:15:55.818Z,101116.17
2018-08-31T17:18:23.881Z,101114.38
2018-08-31T17:20:52.136Z,101110.53
2018-08-31T17:23:20.196Z,101113.11
2018-08-31T17:25:48.239Z,101118.66
2018-08-31T17:28:21.743Z,101115.25
2018-08-31T17:30:53.972Z,101120.81
2018-08-31T17:33:27.334Z,101119.09
2018-08-31T17:36:00.695Z,101122.30
2018-08-31T17:38:28.753Z,101125.86
2018-08-31T17:40:56.810Z,101127.59
2018-08-31T17:43:24.884Z,101131.41
2018-08-31T17:45:52.930Z,101143.16
2018-08-31T17:48:21.033Z,101145.87
2018-08-31T17:50:49.261Z,101148.99
2018-08-31T17:53:17.516Z,101152.40
2018-08-31T17:55:45.656Z,101150.74
2018-08-31T17:58:13.836Z,101152.66
2018-08-31T18:00:42.043Z,101155.77
2018-08-31T18:03:10.158Z,101155.48
2018-08-31T18:05:38.417Z,101158.41
2018-08-31T18:08:06.522Z,101163.47
2018-08-31T18:10:34.625Z,101160.27
2018-08-31T18:13:02.697Z,101167.58
2018-08-31T18:15:30.922Z,101164.73
2018-08-31T18:17:58.899Z,101169.84
2018-08-31T18:20:27.030Z,101172.25
2018-08-31T18:22:55.190Z,101170.27
2018-08-31T18:25:23.418Z,101171.83
2018-08-31T18:27:51.567Z,101172.75
2018-08-31T18:30:19.901Z,101173.05
2018-08-31T18:32:48.199Z,101173.71
2018-08-31T18:35:16.433Z,101180.28
2018-08-31T18:37:44.570Z,101145.58
2018-08-31T18:40:12.612Z,101193.08
2018-08-31T18:42:40.664Z,101192.83
2018-08-31T18:45:08.730Z,101194.84
2018-08-31T18:47:36.853Z,101201.31
2018-08-31T18:50:05.159Z,101192.31
2018-08-31T18:52:33.357Z,101203.22
2018-08-31T18:55:01.331Z,101207.29
2018-08-31T18:57:29.358Z,101203.63
2018-08-31T18:59:57.431Z,101208.12
2018-08-31T19:02:25.492Z,101209.61
2018-08-31T19:04:53.616Z,101213.13
2018-08-31T19:07:21.775Z,101217.23
2018-08-31T19:09:49.944Z,101215.11
2018-08-31T19:12:17.985Z,101221.41
2018-08-31T19:14:46.059Z,101216.71
2018-08-31T19:17:14.252Z,101223.82
2018-08-31T19:19:42.334Z,101220.53
2018-08-31T19:22:10.414Z,101222.36
2018-08-31T19:24:38.576Z,101223.86
2018-08-31T19:27:07.101Z,101227.56
2018-08-31T19:29:35.131Z,101228.30
2018-08-31T19:32:03.192Z,101227.06
2018-08-31T19:34:31.225Z,101226.55
2018-08-31T19:36:59.280Z,101224.94
2018-08-31T19:39:27.346Z,101233.80
2018-08-31T19:41:55.511Z,101227.58
2018-08-31T19:44:23.983Z,101235.41
2018-08-31T19:46:52.336Z,101229.77
2018-08-31T19:49:20.323Z,101234.82
2018-08-31T19:51:48.423Z,101235.17
2018-08-31T19:54:16.495Z,101238.67
2018-08-31T19:56:44.548Z,101237.08
2018-08-31T19:59:12.651Z,101243.56
2018-08-31T20:01:40.969Z,101238.97
2018-08-31T20:04:09.001Z,101246.98
2018-08-31T20:06:37.101Z,101250.14
2018-08-31T20:09:07.243Z,101256.66
2018-08-31T20:11:35.285Z,101253.41
2018-08-31T20:14:03.403Z,101256.57
2018-08-31T20:16:31.459Z,101260.88
2018-08-31T20:18:59.517Z,101264.15
2018-08-31T20:21:27.603Z,101257.41
2018-08-31T20:23:55.681Z,101257.11
2018-08-31T20:26:23.760Z,101258.03
2018-08-31T20:28:51.824Z,101259.77
2018-08-31T20:31:19.874Z,101267.78
2018-08-31T20:33:47.959Z,101267.34
2018-08-31T20:36:16.109Z,101271.55
2018-08-31T20:38:44.262Z,101269.88
2018-08-31T20:41:12.303Z,101277.39
2018-08-31T20:43:40.530Z,101272.98
2018-08-31T20:46:08.636Z,101278.98
2018-08-31T20:48:36.767Z,101280.98
2018-08-31T20:51:05.119Z,101285.39
2018-08-31T20:53:33.335Z,101282.17
2018-08-31T20:56:01.498Z,101283.56
2018-08-31T20:58:29.565Z,101293.86
2018-08-31T21:00:57.724Z,101295.62
2018-08-31T21:03:25.919Z,101295.72
2018-08-31T21:05:54.046Z,101291.80
2018-08-31T21:08:22.194Z,101293.42
2018-08-31T21:10:50.263Z,101292.47
2018-08-31T21:13:18.317Z,101293.95
2018-08-31T21:15:46.711Z,101299.80
2018-08-31T21:18:14.775Z,101300.03
2018-08-31T21:20:42.823Z,101225.91
2018-08-31T21:23:10.928Z,101297.94
2018-08-31T21:25:38.975Z,101300.71
2018-08-31T21:28:07.109Z,101303.25
2018-08-31T21:30:35.165Z,101296.83
2018-08-31T21:33:03.254Z,101302.14
2018-08-31T21:35:31.284Z,101310.23
2018-08-31T21:37:59.328Z,101299.13
2018-08-31T21:40:27.399Z,101304.92
2018-08-31T21:42:55.480Z,101307.93
2018-08-31T21:45:23.510Z,101311.86
2018-08-31T21:47:51.567Z,101309.52
2018-08-31T21:50:19.659Z,101310.47
2018-08-31T21:52:47.742Z,101309.66
2018-08-31T21:55:15.814Z,101311.05
2018-08-31T21:57:43.868Z,101305.50
2018-08-31T22:00:14.443Z,101313.29
2018-08-31T22:02:42.495Z,101319.79
2018-08-31T22:05:10.524Z,101318.27
2018-08-31T22:07:38.598Z,101317.69
2018-08-31T22:10:07.063Z,101310.95
2018-08-31T22:12:35.118Z,101312.81
2018-08-31T22:15:03.147Z,101316.02
2018-08-31T22:17:31.347Z,101315.08
2018-08-31T22:19:59.395Z,101321.44
2018-08-31T22:22:27.527Z,101318.52
2018-08-31T22:24:55.610Z,101321.53
2018-08-31T22:27:23.791Z,101322.48
2018-08-31T22:29:52.017Z,101316.70
2018-08-31T22:32:20.097Z,101320.63
2018-08-31T22:34:48.263Z,101314.63
2018-08-31T22:37:16.815Z,101316.26
2018-08-31T22:39:44.887Z,101311.05
2018-08-31T22:42:13.038Z,101316.16
2018-08-31T22:44:41.091Z,101310.23
2018-08-31T22:47:09.237Z,101311.86
2018-08-31T22:49:37.381Z,101310.84
2018-08-31T22:52:05.704Z,101312.34
2018-08-31T22:54:33.738Z,101311.56
2018-08-31T22:57:01.804Z,101312.95
2018-08-31T22:59:29.899Z,101313.52
2018-08-31T23:01:57.949Z,101314.67
2018-08-31T23:04:26.012Z,101306.92
2018-08-31T23:06:54.108Z,101312.84
2018-08-31T23:09:22.207Z,101314.00
2018-08-31T23:11:50.260Z,101315.09
2018-08-31T23:14:18.344Z,101317.86
2018-08-31T23:16:46.419Z,101324.56
2018-08-31T23:19:14.491Z,101320.98
2018-08-31T23:21:42.526Z,101314.18
2018-08-31T23:24:10.632Z,101325.86
2018-08-31T23:26:38.732Z,101323.66
2018-08-31T23:29:07.000Z,101325.86
2018-08-31T23:31:35.040Z,101324.27
2018-08-31T23:34:03.151Z,101322.88
2018-08-31T23:36:31.192Z,101331.98
2018-08-31T23:38:59.280Z,101320.67
2018-08-31T23:41:27.375Z,101329.20
2018-08-31T23:43:55.468Z,101328.42
2018-08-31T23:46:23.537Z,101322.88
2018-08-31T23:48:51.620Z,101331.23
2018-08-31T23:51:19.651Z,101326.16
2018-08-31T23:53:47.681Z,101317.39
2018-08-31T23:56:16.092Z,101321.09
2018-08-31T23:58:44.143Z,101317.30
